Time;durP1;ratioP1;P1;durP2;ratioP2;P2;SDS_P1;SDS_P2;PMS_P1;PMS_P2;Temp;Humidity;BMP_temperature;BMP_pressure;BME280_temperature;BME280_humidity;BME280_pressure;Samples;Min_cycle;Max_cycle;Signal;HPM_P1;HPM_P2
2024/03/28 00:02:12;;;;;;;3.42;1.83;;;;;;;7.36;100.00;98593.06;5093336;28;20016;-76
2024/03/28 00:04:37;;;;;;;3.05;1.85;;;;;;;7.30;100.00;98591.94;5074684;28;20490;-76
2024/03/28 00:07:04;;;;;;;2.33;1.70;;;;;;;7.24;100.00;98590.00;5093147;28;20028;-76
2024/03/28 00:09:30;;;;;;;3.65;1.80;;;;;;;7.16;100.00;98595.31;5093342;28;20392;-77
2024/03/28 00:11:55;;;;;;;2.05;1.85;;;;;;;7.06;100.00;98599.00;5093148;28;20027;-77
2024/03/28 00:14:21;;;;;;;2.67;1.90;;;;;;;6.98;100.00;98593.72;5093270;28;20024;-76
2024/03/28 00:16:47;;;;;;;3.38;1.73;;;;;;;6.87;100.00;98581.69;5092967;28;20012;-77
2024/03/28 00:19:13;;;;;;;1.95;1.80;;;;;;;6.76;100.00;98582.03;5075132;28;20020;-76
2024/03/28 00:21:38;;;;;;;4.07;2.20;;;;;;;6.64;100.00;98578.13;5092639;28;20081;-75
2024/03/28 00:24:04;;;;;;;2.33;1.70;;;;;;;6.49;100.00;98580.63;5075148;28;20396;-76
2024/03/28 00:26:29;;;;;;;3.88;2.35;;;;;;;6.35;100.00;98576.88;5094498;28;20513;-75
2024/03/28 00:28:55;;;;;;;2.65;2.10;;;;;;;6.25;100.00;98573.56;5095032;28;20107;-76
2024/03/28 00:31:20;;;;;;;5.40;1.70;;;;;;;6.14;100.00;98566.81;5077427;28;20028;-78
2024/03/28 00:33:45;;;;;;;2.72;1.70;;;;;;;6.05;100.00;98565.19;5095712;28;20020;-76
2024/03/28 00:36:11;;;;;;;2.15;1.60;;;;;;;5.98;100.00;98565.00;5078961;28;20063;-76
2024/03/28 00:38:37;;;;;;;1.80;1.70;;;;;;;5.90;100.00;98555.25;5099722;28;20047;-75
2024/03/28 00:41:03;;;;;;;2.15;1.70;;;;;;;5.85;100.00;98557.53;5097356;28;20475;-76
2024/03/28 00:43:28;;;;;;;4.68;2.10;;;;;;;5.85;100.00;98551.44;5097019;28;20024;-75
2024/03/28 00:45:54;;;;;;;3.47;1.80;;;;;;;5.83;100.00;98543.69;5097042;28;20540;-74
2024/03/28 00:48:19;;;;;;;2.17;1.67;;;;;;;5.76;100.00;98532.97;5061797;28;20507;-75
2024/03/28 00:51:11;;;;;;;2.00;1.80;;;;;;;5.73;100.00;98532.47;5096332;28;20035;-76
2024/03/28 00:53:36;;;;;;;;;;;;;;;5.67;100.00;98523.38;5075041;28;20115;-75
2024/03/28 00:56:01;;;;;;;2.63;2.00;;;;;;;5.61;100.00;98522.25;5096598;28;19931;-76
2024/03/28 00:58:27;;;;;;;3.15;2.00;;;;;;;5.53;100.00;98511.69;5096507;28;20101;-76
2024/03/28 01:00:52;;;;;;;2.50;1.80;;;;;;;5.42;100.00;98518.09;5096809;28;20107;-75
2024/03/28 01:03:17;;;;;;;3.28;2.00;;;;;;;5.30;100.00;98506.22;5097457;28;20367;-75
2024/03/28 01:05:43;;;;;;;4.32;2.30;;;;;;;5.19;100.00;98503.88;5096752;28;20436;-75
2024/03/28 01:08:09;;;;;;;4.00;2.30;;;;;;;5.11;100.00;98502.06;5096580;28;20111;-75
2024/03/28 01:10:36;;;;;;;3.33;2.47;;;;;;;5.03;100.00;98496.75;5077847;28;20035;-75
2024/03/28 01:13:02;;;;;;;3.17;2.42;;;;;;;4.94;100.00;98496.75;5095914;28;20146;-76
2024/03/28 01:15:27;;;;;;;3.15;2.70;;;;;;;4.87;100.00;98489.63;5078078;28;20032;-76
2024/03/28 01:17:53;;;;;;;6.60;3.03;;;;;;;4.82;100.00;98492.75;5077452;28;20126;-76
2024/03/28 01:20:18;;;;;;;3.20;2.90;;;;;;;4.76;100.00;98488.09;5096010;28;20028;-76
2024/03/28 01:22:43;;;;;;;4.47;2.83;;;;;;;4.71;100.00;98482.50;5096108;28;20023;-76
2024/03/28 01:25:09;;;;;;;3.25;2.80;;;;;;;4.66;100.00;98474.22;5095946;28;20020;-76
2024/03/28 01:27:36;;;;;;;3.97;2.70;;;;;;;4.71;100.00;98475.41;5095825;28;20468;-75
2024/03/28 01:30:02;;;;;;;5.13;3.17;;;;;;;4.77;100.00;98473.94;5095553;28;20020;-75
2024/03/28 01:32:27;;;;;;;3.67;2.85;;;;;;;4.79;100.00;98477.25;5077587;28;20031;-75
2024/03/28 01:34:52;;;;;;;3.05;2.63;;;;;;;4.80;100.00;98478.09;5077321;28;20016;-76
2024/03/28 01:37:19;;;;;;;5.60;2.72;;;;;;;4.79;100.00;98482.50;5095314;28;20409;-76
2024/03/28 01:39:44;;;;;;;3.75;2.85;;;;;;;4.78;100.00;98470.34;5095648;28;20027;-76
2024/03/28 01:42:10;;;;;;;6.47;3.25;;;;;;;4.79;100.00;98471.16;5092692;28;20024;-75
2024/03/28 01:44:36;;;;;;;3.17;2.78;;;;;;;4.80;100.00;98463.09;5089633;28;20023;-75
2024/03/28 01:47:03;;;;;;;4.28;2.65;;;;;;;4.81;100.00;98445.47;5094626;28;20038;-75
2024/03/28 01:49:29;;;;;;;8.18;2.55;;;;;;;4.79;100.00;98450.06;5076864;28;20034;-76
2024/03/28 01:51:55;;;;;;;4.45;2.60;;;;;;;4.76;100.00;98444.16;5095192;28;20118;-76
2024/03/28 01:54:22;;;;;;;4.00;2.72;;;;;;;4.75;100.00;98436.41;5093740;28;20024;-77
2024/03/28 01:56:48;;;;;;;4.38;3.08;;;;;;;4.68;100.00;98440.66;5092554;28;20030;-76
2024/03/28 01:59:15;;;;;;;4.45;3.00;;;;;;;4.65;100.00;98435.72;5092589;28;20020;-76
2024/03/28 02:01:44;;;;;;;2.97;2.65;;;;;;;4.59;100.00;98431.91;5073777;28;20322;-77
2024/03/28 02:04:10;;;;;;;3.92;2.80;;;;;;;4.54;100.00;98428.94;5091947;28;20020;-77
2024/03/28 02:06:39;;;;;;;2.67;2.30;;;;;;;4.52;100.00;98421.19;5092501;28;20081;-77
2024/03/28 02:09:05;;;;;;;2.72;2.47;;;;;;;4.50;100.00;98423.16;5092280;28;20156;-77
2024/03/28 02:11:32;;;;;;;2.90;2.55;;;;;;;4.45;100.00;98417.53;5092328;28;20040;-76
2024/03/28 02:13:58;;;;;;;4.10;2.70;;;;;;;4.39;100.00;98412.94;5092255;28;20035;-76
2024/03/28 02:16:23;;;;;;;2.75;2.40;;;;;;;4.34;100.00;98412.56;5092178;28;20024;-76
2024/03/28 02:18:48;;;;;;;4.43;2.70;;;;;;;4.29;100.00;98414.84;5091902;28;20074;-76
2024/03/28 02:21:14;;;;;;;4.05;2.80;;;;;;;4.26;100.00;98413.34;5092229;28;20126;-77
2024/03/28 02:23:40;;;;;;;5.47;2.30;;;;;;;4.22;100.00;98410.22;5091821;28;20170;-76
2024/03/28 02:26:05;;;;;;;3.10;2.50;;;;;;;4.18;100.00;98405.41;5091794;28;20118;-76
2024/03/28 02:28:35;;;;;;;2.83;2.38;;;;;;;4.13;100.00;98403.25;5073782;28;20044;-76
2024/03/28 02:31:00;;;;;;;4.40;2.35;;;;;;;4.09;100.00;98409.81;5091196;28;20035;-77
2024/03/28 02:33:26;;;;;;;3.55;2.30;;;;;;;4.08;100.00;98404.72;5091715;28;20020;-76
2024/03/28 02:35:52;;;;;;;2.65;2.33;;;;;;;4.10;100.00;98405.38;5092051;28;20023;-76
2024/03/28 02:38:18;;;;;;;4.25;2.70;;;;;;;4.13;100.00;98402.44;5073161;28;20020;-77
2024/03/28 02:40:43;;;;;;;4.15;2.60;;;;;;;4.19;100.00;98402.63;5091766;28;20048;-77
2024/03/28 02:43:08;;;;;;;2.85;2.60;;;;;;;4.25;100.00;98393.25;5091625;28;20145;-77
2024/03/28 02:45:34;;;;;;;2.85;2.50;;;;;;;4.30;100.00;98390.16;5091601;28;20204;-77
2024/03/28 02:47:59;;;;;;;3.67;3.00;;;;;;;4.33;100.00;98385.41;5091849;28;20517;-77
2024/03/28 02:50:25;;;;;;;3.03;2.72;;;;;;;4.40;100.00;98380.31;5090740;28;20512;-77
2024/03/28 02:52:50;;;;;;;3.28;2.70;;;;;;;4.49;100.00;98381.19;5091281;28;20380;-77
2024/03/28 02:55:15;;;;;;;2.92;2.63;;;;;;;4.54;100.00;98363.91;5091525;28;20398;-76
2024/03/28 02:57:41;;;;;;;3.38;2.80;;;;;;;4.59;100.00;98356.34;5072908;28;20348;-76
2024/03/28 03:00:08;;;;;;;2.50;2.20;;;;;;;4.67;100.00;98357.34;5072370;28;20103;-76
2024/03/28 03:02:33;;;;;;;4.45;2.35;;;;;;;4.72;100.00;98349.81;5072890;28;20027;-76
2024/03/28 03:04:59;;;;;;;3.85;2.53;;;;;;;4.75;100.00;98339.75;5090958;28;20023;-77
2024/03/28 03:07:24;;;;;;;3.15;2.80;;;;;;;4.81;100.00;98321.63;5072810;28;20024;-76
2024/03/28 03:09:49;;;;;;;3.63;2.65;;;;;;;4.83;100.00;98323.13;5090984;28;20103;-76
2024/03/28 03:12:15;;;;;;;3.88;3.05;;;;;;;4.83;100.00;98314.41;5090849;28;20070;-76
2024/03/28 03:14:40;;;;;;;4.60;3.13;;;;;;;4.83;100.00;98317.03;5091214;28;20036;-76
2024/03/28 03:17:05;;;;;;;3.58;3.00;;;;;;;4.82;100.00;98318.00;5090194;28;20108;-78
2024/03/28 03:19:31;;;;;;;6.40;2.85;;;;;;;4.83;100.00;98322.31;5091119;28;20171;-77
2024/03/28 03:21:56;;;;;;;4.57;2.90;;;;;;;4.85;100.00;98309.78;5090430;28;20024;-77
2024/03/28 03:24:22;;;;;;;4.55;3.25;;;;;;;4.89;100.00;98304.03;5090923;28;20024;-77
2024/03/28 03:26:50;;;;;;;3.58;3.10;;;;;;;4.93;100.00;98300.06;5090810;28;20013;-77
2024/03/28 03:34:47;;;;;;;5.32;2.90;;;;;;;5.05;100.00;98291.84;5090981;28;20062;-77
2024/03/28 03:37:23;;;;;;;3.67;2.83;;;;;;;5.07;100.00;98300.41;5090564;28;20024;-76
2024/03/28 03:39:53;;;;;;;3.13;2.42;;;;;;;5.10;100.00;98298.25;5090538;28;20134;-76
2024/03/28 03:42:19;;;;;;;3.72;2.58;;;;;;;5.18;100.00;98296.59;5054930;28;20039;-76
2024/03/28 03:44:44;;;;;;;4.05;2.90;;;;;;;5.17;100.00;98298.41;5090529;28;20036;-76
2024/03/28 03:47:10;;;;;;;4.05;2.65;;;;;;;5.21;100.00;98307.66;5090824;28;20031;-77
2024/03/28 03:49:35;;;;;;;4.00;2.80;;;;;;;5.21;100.00;98299.75;5072323;28;20430;-77
2024/03/28 03:52:00;;;;;;;5.40;2.80;;;;;;;5.26;100.00;98292.13;5090127;28;20141;-77
2024/03/28 03:54:26;;;;;;;4.57;3.20;;;;;;;5.27;100.00;98303.53;5090689;28;20103;-77
2024/03/28 03:56:51;;;;;;;6.53;3.03;;;;;;;5.33;100.00;98299.38;5072498;28;20098;-77
2024/03/28 03:59:17;;;;;;;4.38;2.60;;;;;;;5.38;100.00;98291.78;5090719;28;20099;-77
2024/03/28 04:01:42;;;;;;;6.55;2.90;;;;;;;5.41;100.00;98288.81;5090418;28;20494;-76
2024/03/28 04:04:08;;;;;;;3.38;2.75;;;;;;;5.42;100.00;98290.44;5090444;28;20035;-77
2024/03/28 04:06:33;;;;;;;2.70;2.45;;;;;;;5.45;100.00;98292.78;5090482;28;20538;-76
2024/03/28 04:08:59;;;;;;;4.50;2.58;;;;;;;5.43;100.00;98285.03;5072137;28;20110;-76
2024/03/28 04:11:24;;;;;;;4.40;2.35;;;;;;;5.43;100.00;98279.75;5091354;28;20043;-76
2024/03/28 04:13:49;;;;;;;3.10;2.80;;;;;;;5.45;100.00;98274.31;5094300;28;20042;-76
2024/03/28 04:16:15;;;;;;;3.00;2.50;;;;;;;5.49;100.00;98272.97;5094547;28;20460;-76
2024/03/28 04:18:40;;;;;;;5.40;2.50;;;;;;;5.54;100.00;98275.94;5094541;28;20067;-76
2024/03/28 04:21:06;;;;;;;4.50;2.60;;;;;;;5.53;100.00;98268.19;5094267;28;20095;-76
2024/03/28 04:23:31;;;;;;;3.35;2.78;;;;;;;5.51;100.00;98264.88;5094384;28;20115;-78
2024/03/28 04:25:58;;;;;;;5.32;3.05;;;;;;;5.50;100.00;98257.97;5093458;28;20392;-75
2024/03/28 04:28:24;;;;;;;4.30;2.75;;;;;;;5.49;100.00;98265.06;5093982;28;20105;-75
2024/03/28 04:30:50;;;;;;;2.90;2.60;;;;;;;5.48;100.00;98263.44;5093631;28;20448;-76
2024/03/28 04:33:16;;;;;;;6.10;3.20;;;;;;;5.49;100.00;98257.13;5093710;28;20070;-76
2024/03/28 04:35:43;;;;;;;2.90;2.50;;;;;;;5.46;100.00;98247.78;5075551;28;20020;-77
2024/03/28 04:38:09;;;;;;;5.00;2.92;;;;;;;5.46;100.00;98250.41;5094307;28;20020;-77
2024/03/28 04:40:35;;;;;;;3.90;2.92;;;;;;;5.46;100.00;98247.78;5093984;28;20100;-77
2024/03/28 04:43:00;;;;;;;5.07;2.92;;;;;;;5.47;100.00;98248.59;5094513;28;20012;-76
2024/03/28 04:45:26;;;;;;;4.60;3.00;;;;;;;5.46;100.00;98249.56;5093982;28;20427;-75
2024/03/28 04:47:52;;;;;;;3.85;2.92;;;;;;;5.43;100.00;98247.28;5093586;28;20028;-75
2024/03/28 04:50:18;;;;;;;6.75;3.10;;;;;;;5.41;100.00;98242.16;5093916;28;20386;-76
2024/03/28 04:52:44;;;;;;;6.80;2.83;;;;;;;5.40;100.00;98237.88;5075514;28;20028;-76
2024/03/28 04:55:10;;;;;;;3.90;2.95;;;;;;;5.42;100.00;98237.72;5075384;28;20024;-76
2024/03/28 04:57:35;;;;;;;3.28;2.72;;;;;;;5.44;100.00;98235.75;5093711;28;20016;-76
2024/03/28 05:00:01;;;;;;;7.50;3.30;;;;;;;5.44;100.00;98230.47;5094052;28;20035;-76
2024/03/28 05:02:27;;;;;;;3.25;2.65;;;;;;;5.44;100.00;98228.63;5093665;28;20026;-76
2024/03/28 05:04:52;;;;;;;3.28;2.60;;;;;;;5.44;100.00;98233.09;5093953;28;20370;-75
2024/03/28 05:07:19;;;;;;;4.13;2.80;;;;;;;5.44;100.00;98227.81;5093650;28;20470;-77
2024/03/28 05:09:47;;;;;;;3.90;3.03;;;;;;;5.43;100.00;98227.00;5093557;28;20035;-75
2024/03/28 05:12:13;;;;;;;3.65;2.72;;;;;;;5.43;100.00;98232.28;5075415;28;20368;-74
2024/03/28 05:14:39;;;;;;;4.45;2.90;;;;;;;5.44;100.00;98231.28;5093365;28;20016;-75
2024/03/28 05:17:06;;;;;;;3.25;2.70;;;;;;;5.48;100.00;98224.69;5092801;28;20503;-77
2024/03/28 05:19:31;;;;;;;4.43;2.70;;;;;;;5.49;100.00;98225.50;5093568;28;20095;-76
2024/03/28 05:21:56;;;;;;;5.30;2.47;;;;;;;5.48;100.00;98261.59;5092519;28;20050;-76
2024/03/28 05:24:22;;;;;;;2.90;2.50;;;;;;;5.46;100.00;98253.03;5074999;28;20059;-76
2024/03/28 05:26:48;;;;;;;3.40;2.58;;;;;;;5.44;100.00;98260.28;5093369;28;20031;-77
2024/03/28 05:29:13;;;;;;;6.00;2.60;;;;;;;5.43;100.00;98263.09;5093465;28;20072;-77
2024/03/28 05:31:39;;;;;;;2.80;2.60;;;;;;;5.41;100.00;98265.09;5093332;28;20119;-75
2024/03/28 05:34:04;;;;;;;3.03;2.50;;;;;;;5.40;100.00;98255.53;5093149;28;20077;-77
2024/03/28 05:36:30;;;;;;;4.05;2.78;;;;;;;5.37;100.00;98253.22;5074321;28;20060;-76
2024/03/28 05:38:55;;;;;;;3.25;2.65;;;;;;;5.35;100.00;98252.59;5093324;28;20020;-76
2024/03/28 05:41:21;;;;;;;4.63;2.78;;;;;;;5.34;100.00;98253.56;5093103;28;20471;-77
2024/03/28 05:43:46;;;;;;;3.17;2.83;;;;;;;5.34;100.00;98243.84;5093150;28;20034;-77
2024/03/28 05:46:11;;;;;;;3.00;2.58;;;;;;;5.36;100.00;98262.13;5089823;28;20046;-75
2024/03/28 05:48:37;;;;;;;4.32;3.03;;;;;;;5.35;100.00;98256.03;5090213;28;20401;-75
2024/03/28 05:51:02;;;;;;;4.18;3.15;;;;;;;5.36;100.00;98257.69;5091926;28;20035;-76
2024/03/28 05:53:28;;;;;;;3.00;2.72;;;;;;;5.39;100.00;98264.41;5092205;28;20069;-77
2024/03/28 05:55:53;;;;;;;3.95;2.50;;;;;;;5.42;100.00;98264.06;5092808;28;20023;-76
2024/03/28 05:58:18;;;;;;;5.00;2.92;;;;;;;5.46;100.00;98260.97;5092760;28;20148;-75
2024/03/28 06:00:44;;;;;;;4.90;2.67;;;;;;;5.54;100.00;98260.09;5092684;28;20111;-76
2024/03/28 06:03:09;;;;;;;2.42;2.22;;;;;;;5.62;100.00;98262.69;5092392;28;20173;-75
2024/03/28 06:05:34;;;;;;;5.57;2.60;;;;;;;5.74;100.00;98259.72;5092513;28;20479;-76
2024/03/28 06:08:00;;;;;;;3.30;2.38;;;;;;;5.90;100.00;98264.91;5074359;28;20024;-76
2024/03/28 06:10:26;;;;;;;2.10;2.00;;;;;;;6.03;100.00;98261.75;5091955;28;20125;-76
2024/03/28 06:12:51;;;;;;;3.97;2.50;;;;;;;6.20;100.00;98256.41;5091992;28;20039;-76
2024/03/28 06:15:17;;;;;;;3.00;2.30;;;;;;;6.30;100.00;98265.72;5092352;28;20352;-75
2024/03/28 06:17:42;;;;;;;3.15;2.17;;;;;;;6.39;100.00;98265.66;5091955;28;20468;-75
2024/03/28 06:20:08;;;;;;;2.25;1.88;;;;;;;6.46;100.00;98259.50;5092331;28;20020;-75
2024/03/28 06:22:34;;;;;;;2.15;1.92;;;;;;;6.53;100.00;98254.34;5092327;28;20098;-75
2024/03/28 06:25:00;;;;;;;2.45;2.25;;;;;;;6.58;100.00;98257.28;5092198;28;20092;-75
2024/03/28 06:27:25;;;;;;;3.22;1.88;;;;;;;6.60;100.00;98257.09;5092463;28;20053;-76
2024/03/28 06:29:51;;;;;;;4.32;2.00;;;;;;;6.64;100.00;98255.75;5091844;28;20368;-75
2024/03/28 06:32:24;;;;;;;2.38;1.95;;;;;;;6.69;100.00;98258.69;5073473;28;20028;-74
2024/03/28 06:34:56;;;;;;;2.90;1.95;;;;;;;6.72;100.00;98255.69;5091359;28;20020;-75
2024/03/28 06:37:22;;;;;;;2.75;1.88;;;;;;;6.75;100.00;98249.22;5074081;28;20436;-74
2024/03/28 06:39:48;;;;;;;6.05;2.25;;;;;;;6.76;100.00;98251.69;5092212;28;20027;-75
2024/03/28 06:42:13;;;;;;;5.05;2.53;;;;;;;6.75;100.00;98250.06;5073897;28;20114;-74
2024/03/28 06:44:43;;;;;;;3.30;1.90;;;;;;;6.74;100.00;98248.41;5091953;28;20051;-75
2024/03/28 06:47:08;;;;;;;3.50;2.10;;;;;;;6.75;100.00;98243.94;5069827;28;20350;-76
2024/03/28 06:49:34;;;;;;;2.85;1.98;;;;;;;6.75;100.00;98244.78;5066704;28;20027;-76
2024/03/28 06:51:59;;;;;;;2.60;2.10;;;;;;;6.76;100.00;98249.03;5087528;28;20032;-75
2024/03/28 06:54:24;;;;;;;6.80;2.17;;;;;;;6.76;100.00;98254.31;5091230;28;20028;-75
2024/03/28 06:56:50;;;;;;;3.15;1.90;;;;;;;6.79;100.00;98250.50;5071922;28;20432;-76
2024/03/28 06:59:15;;;;;;;4.35;2.30;;;;;;;6.80;100.00;98249.53;5090921;28;20092;-74
2024/03/28 07:01:42;;;;;;;2.50;2.30;;;;;;;6.84;100.00;98248.97;5071036;28;20028;-76
2024/03/28 07:04:08;;;;;;;3.28;2.05;;;;;;;6.81;100.00;98256.47;5086728;28;20028;-76
2024/03/28 07:06:33;;;;;;;2.88;1.92;;;;;;;6.80;100.00;98260.09;5089933;28;20066;-74
2024/03/28 07:08:58;;;;;;;3.03;2.13;;;;;;;6.77;100.00;98253.34;5090235;28;20059;-75
2024/03/28 07:11:25;;;;;;;3.03;2.03;;;;;;;6.76;100.00;98258.78;5091120;28;20626;-74
2024/03/28 07:13:51;;;;;;;3.00;2.05;;;;;;;6.68;100.00;98254.41;5091150;28;20111;-74
2024/03/28 07:16:16;;;;;;;2.20;2.00;;;;;;;6.61;100.00;98256.91;5091415;28;20059;-75
2024/03/28 07:18:42;;;;;;;3.42;2.22;;;;;;;6.55;100.00;98256.81;5091087;28;20126;-76
2024/03/28 07:21:07;;;;;;;1.98;1.70;;;;;;;6.41;100.00;98256.56;5091562;28;20089;-75
2024/03/28 07:23:33;;;;;;;2.28;1.70;;;;;;;6.29;100.00;98260.63;5091160;28;20016;-76
2024/03/28 07:25:58;;;;;;;2.13;1.80;;;;;;;6.12;100.00;98268.63;5091034;28;20336;-74
2024/03/28 07:28:23;;;;;;;3.22;1.80;;;;;;;5.96;100.00;98281.88;5091118;28;20486;-74
2024/03/28 07:30:49;;;;;;;1.50;1.40;;;;;;;5.81;100.00;98293.16;5091010;28;20027;-75
2024/03/28 07:33:14;;;;;;;2.13;1.50;;;;;;;5.62;100.00;98283.00;5091038;28;20069;-75
2024/03/28 07:35:40;;;;;;;2.22;1.33;;;;;;;5.52;100.00;98295.56;5072981;28;20107;-75
2024/03/28 07:38:05;;;;;;;1.52;1.30;;;;;;;5.45;100.00;98295.41;5090966;28;20029;-74
2024/03/28 07:40:30;;;;;;;1.73;1.38;;;;;;;5.37;100.00;98301.50;5090962;28;20505;-76
2024/03/28 07:42:56;;;;;;;1.55;1.42;;;;;;;5.36;100.00;98294.59;5090984;28;20020;-76
2024/03/28 07:45:21;;;;;;;2.55;1.40;;;;;;;5.32;100.00;98298.56;5090971;28;20031;-76
2024/03/28 07:47:46;;;;;;;2.88;1.40;;;;;;;5.28;100.00;98303.34;5091249;28;20054;-77
2024/03/28 07:50:13;;;;;;;1.75;1.65;;;;;;;5.26;100.00;98296.59;5091013;28;20020;-76
2024/03/28 07:52:38;;;;;;;4.45;1.63;;;;;;;5.28;100.00;98282.25;5090923;28;20108;-77
2024/03/28 07:55:05;;;;;;;1.70;1.60;;;;;;;5.27;100.00;98285.88;5091206;28;20066;-76
2024/03/28 07:57:30;;;;;;;3.15;1.60;;;;;;;5.26;100.00;98284.22;5090921;28;20103;-76
2024/03/28 07:59:56;;;;;;;5.00;2.00;;;;;;;5.28;100.00;98289.34;5090857;28;20505;-76
2024/03/28 08:02:25;;;;;;;2.75;1.60;;;;;;;5.28;100.00;98297.25;5090640;28;20028;-76
2024/03/28 08:04:51;;;;;;;2.78;1.90;;;;;;;5.30;100.00;98295.28;5055783;28;20016;-76
2024/03/28 08:07:16;;;;;;;2.63;2.00;;;;;;;5.36;100.00;98294.59;5072520;28;20367;-75
2024/03/28 08:09:42;;;;;;;1.63;1.52;;;;;;;5.36;100.00;98302.50;5090495;28;20032;-76
2024/03/28 08:12:09;;;;;;;2.10;1.85;;;;;;;5.38;100.00;98297.88;5090496;28;20091;-75
2024/03/28 08:14:35;;;;;;;2.28;1.50;;;;;;;5.40;100.00;98305.63;5090161;28;20028;-75
2024/03/28 08:17:00;;;;;;;2.40;1.80;;;;;;;5.40;100.00;98303.00;5090736;28;20498;-75
2024/03/28 08:19:26;;;;;;;5.13;2.10;;;;;;;5.39;100.00;98310.09;5090679;28;20024;-75
2024/03/28 08:21:52;;;;;;;1.83;1.60;;;;;;;5.39;100.00;98309.25;5090389;28;20073;-74
2024/03/28 08:24:25;;;;;;;4.45;1.90;;;;;;;5.41;100.00;98310.72;5072174;28;20467;-75
2024/03/28 08:26:51;;;;;;;3.45;1.60;;;;;;;5.35;100.00;98314.03;5090272;28;20072;-75
2024/03/28 08:29:16;;;;;;;3.72;1.83;;;;;;;5.32;100.00;98319.66;5072587;28;20024;-75
2024/03/28 08:31:43;;;;;;;1.80;1.50;;;;;;;5.31;100.00;98323.28;5090596;28;20016;-77
2024/03/28 08:34:09;;;;;;;5.68;1.88;;;;;;;5.33;100.00;98329.22;5090467;28;20054;-76
2024/03/28 08:36:34;;;;;;;2.90;1.83;;;;;;;5.35;100.00;98329.06;5090609;28;20396;-76
2024/03/28 08:38:59;;;;;;;3.83;2.15;;;;;;;5.39;100.00;98327.72;5090262;28;20039;-76
2024/03/28 08:41:25;;;;;;;4.28;2.00;;;;;;;5.43;100.00;98331.66;5090098;28;20020;-75
2024/03/28 08:43:50;;;;;;;2.50;2.00;;;;;;;5.47;100.00;98340.91;5090082;28;20028;-75
2024/03/28 08:46:17;;;;;;;2.97;2.05;;;;;;;5.50;100.00;98347.66;5090247;28;20217;-75
2024/03/28 08:48:46;;;;;;;4.55;2.30;;;;;;;5.54;100.00;98346.31;5090393;28;20035;-75
2024/03/28 08:51:17;;;;;;;2.55;2.05;;;;;;;5.55;100.00;98351.41;5090190;28;20048;-73
2024/03/28 08:53:42;;;;;;;3.15;1.95;;;;;;;5.59;100.00;98351.91;5090345;28;20039;-75
2024/03/28 08:56:08;;;;;;;4.28;2.33;;;;;;;5.63;100.00;98353.25;5089940;28;20023;-75
2024/03/28 08:58:35;;;;;;;2.97;2.67;;;;;;;5.63;100.00;98359.34;5093519;28;20035;-75
2024/03/28 09:01:00;;;;;;;2.90;2.60;;;;;;;5.58;100.00;98358.19;5093688;28;20110;-75
2024/03/28 09:03:26;;;;;;;3.92;2.97;;;;;;;5.56;100.00;98358.34;5093656;28;20083;-74
2024/03/28 09:05:52;;;;;;;7.50;2.58;;;;;;;5.58;100.00;98352.91;5093787;28;20054;-75
2024/03/28 09:08:19;;;;;;;3.15;2.75;;;;;;;5.61;100.00;98357.84;5093498;28;20095;-75
2024/03/28 09:10:53;;;;;;;3.90;2.80;;;;;;;5.65;100.00;98365.25;5075662;28;20031;-75
2024/03/28 09:13:18;;;;;;;4.78;3.08;;;;;;;5.68;100.00;98368.56;5093769;28;20100;-75
2024/03/28 09:15:44;;;;;;;3.17;2.75;;;;;;;5.74;100.00;98375.81;5093412;28;20091;-75
2024/03/28 09:18:10;;;;;;;3.42;2.72;;;;;;;5.78;100.00;98366.56;5093264;28;20048;-75
2024/03/28 09:20:36;;;;;;;4.53;3.00;;;;;;;5.83;100.00;98372.16;5093333;28;20073;-76
2024/03/28 09:23:02;;;;;;;7.43;3.53;;;;;;;5.88;100.00;98383.03;5093168;28;20020;-75
2024/03/28 09:25:27;;;;;;;4.28;2.95;;;;;;;5.86;100.00;98384.19;5093218;28;20044;-76
2024/03/28 09:27:53;;;;;;;8.30;3.63;;;;;;;5.92;100.00;98392.25;5093067;28;20048;-76
2024/03/28 09:30:18;;;;;;;4.57;3.50;;;;;;;6.00;100.00;98399.34;5093062;28;20466;-76
2024/03/28 09:32:45;;;;;;;7.78;3.85;;;;;;;6.16;100.00;98401.13;5092920;28;20031;-76
2024/03/28 09:35:11;;;;;;;5.40;3.83;;;;;;;6.43;100.00;98412.25;5092906;28;20475;-76
2024/03/28 09:37:36;;;;;;;9.88;4.30;;;;;;;6.65;100.00;98422.03;5093232;28;20024;-77
2024/03/28 09:40:02;;;;;;;8.52;3.70;;;;;;;6.83;100.00;98426.25;5074739;28;20135;-77
2024/03/28 09:42:28;;;;;;;4.85;3.70;;;;;;;6.92;100.00;98427.84;5092822;28;20024;-76
2024/03/28 09:44:53;;;;;;;5.88;3.80;;;;;;;6.99;100.00;98431.44;5093219;28;20043;-76
2024/03/28 09:47:21;;;;;;;5.50;3.83;;;;;;;7.14;100.00;98428.88;5093072;28;20028;-76
2024/03/28 09:49:47;;;;;;;6.78;3.60;;;;;;;7.32;100.00;98430.41;5093035;28;20031;-77
2024/03/28 09:52:13;;;;;;;8.13;3.50;;;;;;;7.44;100.00;98436.91;5092783;28;20027;-77
2024/03/28 09:54:44;;;;;;;6.05;3.47;;;;;;;7.62;100.00;98431.31;5092500;28;20085;-76
2024/03/28 09:57:09;;;;;;;5.72;3.33;;;;;;;7.75;100.00;98426.22;5092790;28;20103;-76
2024/03/28 09:59:35;;;;;;;6.15;2.90;;;;;;;8.05;100.00;98430.75;5092519;28;20491;-76
2024/03/28 10:02:13;;;;;;;7.65;2.92;;;;;;;8.41;100.00;98437.97;5092591;28;20035;-76
2024/03/28 10:04:43;;;;;;;6.53;2.50;;;;;;;8.96;100.00;98427.84;5092938;28;20451;-78
2024/03/28 10:07:10;;;;;;;11.15;2.60;;;;;;;9.79;100.00;98438.84;5092491;28;20156;-76
2024/03/28 10:09:36;;;;;;;10.55;1.98;;;;;;;10.55;100.00;98439.94;5091428;28;20020;-77
2024/03/28 10:12:12;;;;;;;7.32;2.38;;;;;;;10.48;100.00;98445.22;5073643;28;20483;-77
2024/03/28 10:14:39;;;;;;;10.25;2.53;;;;;;;10.46;100.00;98443.78;5092388;28;20096;-77
2024/03/28 10:17:05;;;;;;;9.82;2.13;;;;;;;10.59;100.00;98446.50;5092192;28;20071;-77
2024/03/28 10:19:33;;;;;;;6.18;1.92;;;;;;;10.61;100.00;98446.28;5092104;28;20043;-77
2024/03/28 10:22:08;;;;;;;11.18;2.03;;;;;;;10.70;100.00;98451.25;5092599;28;20020;-76
2024/03/28 10:24:36;;;;;;;10.02;2.00;;;;;;;10.69;100.00;98468.22;5092115;28;20444;-75
2024/03/28 10:27:12;;;;;;;13.15;1.90;;;;;;;10.36;100.00;98468.03;5073588;28;20111;-78
2024/03/28 10:29:38;;;;;;;5.28;1.38;;;;;;;9.83;100.00;98482.56;5073755;28;20024;-77
2024/03/28 10:32:05;;;;;;;8.38;1.52;;;;;;;9.80;100.00;98485.59;5056757;28;20051;-78
2024/03/28 10:34:30;;;;;;;6.18;1.15;;;;;;;9.64;100.00;98504.44;5092243;28;20039;-78
2024/03/28 10:37:05;;;;;;;7.47;1.73;;;;;;;9.48;100.00;98502.84;5073388;28;20032;-78
2024/03/28 10:39:31;;;;;;;7.63;2.22;;;;;;;9.32;100.00;98515.38;5091930;28;20043;-78
2024/03/28 10:41:59;;;;;;;12.20;1.85;;;;;;;9.18;100.00;98505.59;5091736;28;20439;-78
2024/03/28 10:44:26;;;;;;;10.75;1.73;;;;;;;9.02;100.00;98514.63;5091555;28;20020;-78
2024/03/28 10:46:53;;;;;;;11.23;1.83;;;;;;;8.83;100.00;98523.97;5091733;28;20032;-78
2024/03/28 10:49:28;;;;;;;12.27;1.70;;;;;;;8.75;100.00;98514.28;5091606;28;20094;-78
2024/03/28 10:52:02;;;;;;;7.88;1.90;;;;;;;8.77;100.00;98524.72;5091478;28;20092;-77
2024/03/28 10:54:39;;;;;;;11.27;1.83;;;;;;;9.27;100.00;98539.00;5091632;28;20028;-82
2024/03/28 10:57:07;;;;;;;12.95;1.88;;;;;;;9.89;100.00;98537.56;5072855;28;20442;-78
2024/03/28 10:59:33;;;;;;;11.35;1.60;;;;;;;10.86;100.00;98548.50;5073514;28;20024;-77
2024/03/28 11:02:00;;;;;;;15.70;1.70;;;;;;;11.73;100.00;98547.97;5091421;28;20020;-78
2024/03/28 11:04:25;;;;;;;6.68;1.83;;;;;;;12.92;100.00;98545.47;5091487;28;20028;-77
2024/03/28 11:06:54;;;;;;;11.18;1.60;;;;;;;13.32;100.00;98550.66;5072953;28;20043;-78
2024/03/28 11:09:23;;;;;;;6.22;1.08;;;;;;;13.73;100.00;98552.94;5091122;28;20158;-77
2024/03/28 11:11:51;;;;;;;6.90;1.25;;;;;;;14.46;100.00;98553.41;5091282;28;20043;-78
2024/03/28 11:14:17;;;;;;;9.20;1.33;;;;;;;14.73;100.00;98569.22;5091113;28;20043;-77
2024/03/28 11:16:42;;;;;;;5.88;1.50;;;;;;;15.29;100.00;98551.31;5090976;28;20409;-77
2024/03/28 11:19:08;;;;;;;11.20;1.40;;;;;;;15.58;100.00;98556.91;5091029;28;20356;-78
2024/03/28 11:21:33;;;;;;;5.22;1.48;;;;;;;15.39;100.00;98562.31;5072529;28;20409;-78
2024/03/28 11:23:59;;;;;;;5.25;1.35;;;;;;;15.01;100.00;98575.94;5091027;28;20021;-78
2024/03/28 11:26:25;;;;;;;12.07;1.80;;;;;;;14.83;100.00;98587.47;5091172;28;20169;-78
2024/03/28 11:29:05;;;;;;;7.22;1.40;;;;;;;14.12;100.00;98590.28;5090991;28;20460;-78
2024/03/28 11:31:31;;;;;;;7.93;1.30;;;;;;;13.93;100.00;98590.22;5091059;28;20115;-78
2024/03/28 11:34:01;;;;;;;10.88;2.22;;;;;;;13.89;100.00;98588.19;5090751;28;20031;-77